默认 日期 大小 文件数 浏览量 最新下载 xml
the why磁力链接相关资源由用户搜索指令自动获取,结果来源于网络,本站不存储任何资料,亦不承担任何责任,请于24小时内删除,搜索到2117个磁力,用时255ms。
    {"audiobook-sample.mp3": 2383455, "free audiobook version.txt": 366, "The Improbability Principle_ Wh - David J. Hand.epub": 3206832}
创建时间: 2018-12-24 22:09:39 大小:5.33 MB 文件数量:3 热度:9 最近下载:2023-04-14 18:50:02
    {"The Dangerous Passion - Why Jealousy Is as Necessary as Love and Sex.epub": 421470}
创建时间: 2018-12-25 00:52:19 大小:411.59 KB 文件数量:1 热度:8 最近下载:2023-04-15 03:20:08
    {"cover.jpg": 38791, "The Religion Virus by Craig James.epub": 273570}
创建时间: 2018-12-25 02:39:05 大小:305.04 KB 文件数量:2 热度:10 最近下载:2025-01-12 00:55:06
    {"cover.jpg": 110096, "metadata.opf": 1357, "Why the Universe Is the Way It - Ross, Hugh.epub": 1630641, "Why the Universe Is the Way It - Ross, Hugh.mobi": 1054755}
创建时间: 2018-12-25 02:59:25 大小:2.67 MB 文件数量:4 热度:7 最近下载:2023-04-15 04:50:02
    ... , "Good to Great Why Some Companies Make the Leap...and Others Don ...
创建时间: 2018-12-25 06:06:45 大小:2.42 MB 文件数量:9 热度:11 最近下载:2025-01-14 02:37:06
    {"ECLiPSE.txt": 19963, "Read Me.txt": 1187, "The Scandal of Money Why Wall Street Recovers but the Economy Never Does.epub": 1139239}
创建时间: 2018-12-25 06:22:32 大小:1.11 MB 文件数量:3 热度:12 最近下载:2025-09-19 03:02:33
    {"Misquoting Jesus - The Story Behind Who Changed the Bible and Why.pdf": 25710968}
创建时间: 2018-12-25 07:18:01 大小:24.52 MB 文件数量:1 热度:8 最近下载:2023-04-15 08:30:06
    {"audiobook-sample.mp3": 2400801, "free audiobook version.txt": 366, "The Death of Expertise - Tom Nichols.epub": 297807}
创建时间: 2018-12-25 07:26:53 大小:2.57 MB 文件数量:3 热度:12 最近下载:2025-02-22 08:56:08
    {"Power of Habit CD1": {"Power of Habit CD1 - 01 - Track 1.mp3": 339782, "Power of Habit CD1 - 02 - Track 2.mp3": 10045850, "Power of Habit CD1 - 03 - Track 3.mp3": 9608414, "Power of Habit CD1 - 04 - Track 4.mp3": 8162474, "Power of Habit CD1 - 05 - Track ...
创建时间: 2018-12-25 08:03:43 大小:720.63 MB 文件数量:100 热度:13 最近下载:2025-08-03 15:33:09
    {"01 - The Memory Illusion.mp3": 234159287}
创建时间: 2018-12-25 08:30:03 大小:223.31 MB 文件数量:1 热度:17 最近下载:2025-02-26 06:25:02
    {"Subs": {"2_Eng.srt": 91496}, "RARBG.mp4": 1016764, "RARBG.txt": 30, "The.River.Why.2011.720p.BluRay.H264.AAC-RARBG.mp4": 1352017980, "The.River.Why.2011.720p.BluRay.H264.AAC-RARBG.nfo": 4021}
创建时间: 2018-12-25 08:35:29 大小:1.26 GB 文件数量:5 热度:11 最近下载:2025-01-16 09:26:02
    ... Bird.flac": 33109442, "Why Don't You Do Right ... flac": 28398821, "11. Why Don't You Do Right ... 23207168, "Kim Hoorweg & The Houdini's - Why Don't You Do ... Right.log": 24478, "Kim Hoorweg & The ... Houdini's - Why Don't You Do ...
创建时间: 2018-12-25 08:51:18 大小:316.91 MB 文件数量:18 热度:13 最近下载:2025-03-15 06:46:02
    {"How the Brain Learns Mathematics.pdf": 2935896}
创建时间: 2018-12-25 09:56:52 大小:2.8 MB 文件数量:1 热度:16 最近下载:2025-09-29 11:34:02
    {"cover.jpg": 1129328, "metadata.opf": 6058, "Why Did the Chicken Cross the W - Lawler, Andrew {Moose}.epub": 2425577, "Why Did the Chicken Cross the W - Lawler, Andrew {Moose}.mobi": 2084688}
创建时间: 2018-12-25 13:45:52 大小:5.38 MB 文件数量:4 热度:8 最近下载:2023-04-15 12:20:06
    {"CD1": {"lap-wbra.avi": 733292544}, "CD2": {"lap-wbrb.avi": 734541824}, "Subs": {"lap-wbra.idx": 29136, "lap-wbra.sub": 2580480, "lap-wbrb.idx": 24039, "lap-wbrb.sub": 2076672}, "lap-wbr.nfo": 4011, "RARBG.com.txt": 34}
创建时间: 2018-12-25 14:00:47 大小:1.37 GB 文件数量:8 热度:10 最近下载:2025-09-17 16:33:01
    {"More Awsome Books - Copy.url": 172, "1592332285Healthiest FoodsC - Copy.epub": 11324065}
创建时间: 2018-12-25 16:43:55 大小:10.8 MB 文件数量:2 热度:11 最近下载:2025-02-06 14:45:05
    ... .txt": 0, "Why the Industrial Revolution Happened Here.jpg": 1155553, "Why the Industrial Revolution ... Happened Here.mp4": 1046413779, "Why the Industrial Revolution ...
创建时间: 2018-12-25 19:07:43 大小:999.11 MB 文件数量:6 热度:11 最近下载:2025-09-04 22:46:04
    {"front cover.jpg": 55847, "Alan Clayson - Led Zeppelin - The Origin of the Species - How, Why, and Where It All Began (2006).pdf": 12643371}
创建时间: 2018-12-25 20:00:45 大小:12.11 MB 文件数量:2 热度:17 最近下载:2025-09-21 08:52:03
    {"The Magic of Math Solving.tgz": 37907790, "Torrent downloaded from demonoid.pw.txt": 46, "Torrent Downloaded From ExtraTorrent.cc.txt": 352}
创建时间: 2018-12-25 20:03:28 大小:36.15 MB 文件数量:3 热度:10 最近下载:2025-09-28 16:21:04
    {"Info.nfo": 721, "show_comp.jpeg": 230735, "Twistys.09.07.18.Shawna.Lenee.Thats.Why.They.Call.Her.The.Head.Nurse.XXX.HR.Sex4Ever.wmv": 724318411}
创建时间: 2018-12-26 20:01:11 大小:690.98 MB 文件数量:3 热度:13 最近下载:2025-10-03 21:22:06